createdAt,value
2022-11-12T00:00:21.406Z,5.30
2022-11-12T00:03:08.818Z,6.30
2022-11-12T00:05:56.595Z,5.70
2022-11-12T00:08:43.643Z,5.20
2022-11-12T00:11:31.387Z,4.80
2022-11-12T00:14:18.508Z,5.60
2022-11-12T00:17:07.673Z,4.60
2022-11-12T00:19:55.075Z,5.30
2022-11-12T00:22:43.009Z,5.60
2022-11-12T00:25:30.325Z,5.60
2022-11-12T00:28:18.209Z,5.47
2022-11-12T00:31:11.970Z,5.60
2022-11-12T00:34:01.038Z,5.10
2022-11-12T00:36:48.077Z,5.40
2022-11-12T00:39:35.758Z,4.97
2022-11-12T00:42:22.702Z,4.93
2022-11-12T00:45:10.965Z,5.23
2022-11-12T00:47:58.212Z,5.03
2022-11-12T00:50:48.087Z,5.27
2022-11-12T00:53:34.934Z,5.47
2022-11-12T00:56:22.692Z,5.07
2022-11-12T00:59:09.884Z,5.20
2022-11-12T01:01:57.714Z,4.77
2022-11-12T01:04:44.686Z,4.67
2022-11-12T01:07:33.885Z,3.93
2022-11-12T01:10:21.142Z,4.40
2022-11-12T01:13:08.706Z,4.13
2022-11-12T01:15:55.657Z,4.20
2022-11-12T01:18:43.787Z,4.47
2022-11-12T01:21:33.332Z,4.60
2022-11-12T01:24:22.601Z,4.40
2022-11-12T01:27:09.626Z,5.00
2022-11-12T01:29:56.987Z,4.70
2022-11-12T01:32:44.097Z,4.30
2022-11-12T01:35:31.875Z,4.67
2022-11-12T01:38:18.895Z,5.63
2022-11-12T01:41:14.195Z,4.90
2022-11-12T01:44:12.480Z,5.80
2022-11-12T01:47:06.683Z,5.10
2022-11-12T01:49:59.460Z,4.97
2022-11-12T01:52:51.518Z,5.03
2022-11-12T01:55:39.191Z,5.30
2022-11-12T01:58:33.484Z,4.93
2022-11-12T02:01:20.466Z,5.10
2022-11-12T02:04:07.946Z,4.80
2022-11-12T02:06:57.505Z,4.90
2022-11-12T02:09:45.366Z,5.40
2022-11-12T02:12:50.170Z,5.10
2022-11-12T02:15:40.207Z,5.57
2022-11-12T02:18:27.084Z,5.13
2022-11-12T02:21:14.843Z,5.27
2022-11-12T02:24:05.625Z,4.70
2022-11-12T02:26:56.681Z,5.87
2022-11-12T02:29:46.504Z,5.13
2022-11-12T02:32:33.873Z,5.67
2022-11-12T02:35:20.890Z,5.27
2022-11-12T02:38:09.619Z,5.83
2022-11-12T02:40:58.120Z,5.47
2022-11-12T02:43:46.114Z,6.40
2022-11-12T02:46:32.722Z,5.57
2022-11-12T02:49:20.047Z,5.40
2022-11-12T02:52:07.179Z,5.87
2022-11-12T02:54:54.790Z,5.67
2022-11-12T02:57:43.338Z,5.63
2022-11-12T03:00:31.213Z,5.10
2022-11-12T03:03:18.412Z,5.07
2022-11-12T03:06:06.595Z,5.53
2022-11-12T03:08:53.555Z,5.30
2022-11-12T03:11:41.195Z,4.80
2022-11-12T03:14:29.492Z,4.80
2022-11-12T03:17:16.736Z,4.47
2022-11-12T03:20:03.571Z,4.37
2022-11-12T03:22:57.535Z,4.27
2022-11-12T03:25:44.576Z,4.50
2022-11-12T03:28:32.664Z,4.40
2022-11-12T03:31:21.137Z,4.90
2022-11-12T03:34:08.978Z,4.27
2022-11-12T03:36:56.470Z,4.87
2022-11-12T03:39:44.398Z,4.13
2022-11-12T03:42:31.370Z,4.67
2022-11-12T03:45:20.412Z,4.07
2022-11-12T03:48:08.918Z,4.30
2022-11-12T03:50:59.246Z,4.20
2022-11-12T03:53:46.632Z,4.17
2022-11-12T03:56:34.190Z,3.77
2022-11-12T03:59:21.187Z,4.17
2022-11-12T04:02:14.752Z,4.63
2022-11-12T04:05:20.475Z,4.50
2022-11-12T04:08:30.717Z,5.00
2022-11-12T04:11:19.048Z,4.80
2022-11-12T04:14:05.904Z,4.87
2022-11-12T04:17:11.227Z,4.90
2022-11-12T04:20:16.000Z,4.70
2022-11-12T04:23:05.025Z,4.87
2022-11-12T04:26:09.393Z,4.90
2022-11-12T04:29:26.381Z,5.13
2022-11-12T04:32:13.195Z,5.07
2022-11-12T04:35:01.439Z,5.17
2022-11-12T04:37:49.917Z,6.10
2022-11-12T04:40:55.793Z,4.90
2022-11-12T04:44:00.910Z,5.43
2022-11-12T04:46:47.828Z,3.97
2022-11-12T04:49:35.456Z,4.93
2022-11-12T04:52:22.597Z,5.03
2022-11-12T04:55:11.165Z,4.93
2022-11-12T04:58:00.952Z,4.50
2022-11-12T05:00:49.220Z,4.10
2022-11-12T05:03:36.564Z,4.77
2022-11-12T05:06:50.080Z,4.57
2022-11-12T05:09:37.688Z,4.77
2022-11-12T05:12:25.522Z,3.80
2022-11-12T05:15:13.888Z,4.07
2022-11-12T05:18:01.266Z,4.17
2022-11-12T05:20:51.284Z,4.30
2022-11-12T05:23:38.920Z,3.80
2022-11-12T05:26:25.786Z,3.97
2022-11-12T05:29:13.283Z,3.47
2022-11-12T05:32:01.990Z,3.83
2022-11-12T05:34:49.787Z,3.63
2022-11-12T05:37:36.913Z,2.97
2022-11-12T05:40:24.100Z,3.53
2022-11-12T05:43:11.614Z,3.13
2022-11-12T05:45:58.628Z,3.50
2022-11-12T05:48:48.568Z,3.90
2022-11-12T05:51:35.655Z,4.43
2022-11-12T05:54:25.194Z,4.10
2022-11-12T05:57:12.323Z,3.90
2022-11-12T05:59:59.921Z,4.20
2022-11-12T06:02:47.002Z,4.20
2022-11-12T06:05:37.052Z,5.17
2022-11-12T06:08:25.002Z,3.53
2022-11-12T06:11:12.630Z,3.53
2022-11-12T06:14:00.008Z,3.53
2022-11-12T06:16:47.790Z,3.13
2022-11-12T06:19:34.812Z,3.10
2022-11-12T06:22:23.811Z,3.40
2022-11-12T06:25:11.068Z,3.73
2022-11-12T06:27:59.096Z,3.57
2022-11-12T06:30:46.858Z,3.20
2022-11-12T06:33:33.476Z,3.50
2022-11-12T06:36:22.227Z,2.80
2022-11-12T06:39:11.820Z,3.30
2022-11-12T06:41:59.956Z,4.17
2022-11-12T06:44:46.916Z,4.60
2022-11-12T06:47:34.432Z,4.83
2022-11-12T06:50:21.491Z,4.73
2022-11-12T06:53:09.379Z,4.40
2022-11-12T06:56:03.210Z,5.40
2022-11-12T06:58:50.731Z,4.83
2022-11-12T07:01:38.053Z,4.33
2022-11-12T07:04:26.024Z,4.80
2022-11-12T07:07:12.822Z,4.87
2022-11-12T07:10:00.858Z,4.30
2022-11-12T07:12:53.357Z,5.03
2022-11-12T07:15:40.529Z,5.33
2022-11-12T07:18:29.294Z,6.30
2022-11-12T07:21:17.901Z,6.20
2022-11-12T07:24:05.985Z,5.47
2022-11-12T07:26:52.888Z,5.57
2022-11-12T07:29:48.169Z,5.87
2022-11-12T07:32:41.927Z,5.43
2022-11-12T07:35:31.070Z,5.40
2022-11-12T07:38:17.997Z,5.10
2022-11-12T07:41:07.868Z,5.23
2022-11-12T07:43:55.071Z,5.07
2022-11-12T07:46:44.055Z,7.20
2022-11-12T07:49:31.052Z,7.03
2022-11-12T07:52:18.414Z,6.50
2022-11-12T07:55:06.406Z,4.53
2022-11-12T07:57:54.442Z,3.97
2022-11-12T08:00:41.739Z,4.50
2022-11-12T08:03:30.244Z,4.90
2022-11-12T08:06:18.039Z,3.87
2022-11-12T08:09:07.015Z,10.20
2022-11-12T08:11:55.667Z,7.50
2022-11-12T08:14:42.727Z,5.40
2022-11-12T08:17:30.278Z,5.87
2022-11-12T08:20:18.703Z,6.37
2022-11-12T08:23:06.383Z,6.43
2022-11-12T08:25:53.581Z,5.83
2022-11-12T08:28:41.462Z,6.10
2022-11-12T08:31:28.456Z,5.80
2022-11-12T08:34:21.507Z,4.07
2022-11-12T08:37:11.261Z,4.90
2022-11-12T08:39:58.982Z,6.63
2022-11-12T08:42:46.552Z,5.47
2022-11-12T08:45:36.226Z,7.23
2022-11-12T08:48:22.976Z,6.90
2022-11-12T08:51:10.345Z,6.13
2022-11-12T08:53:58.645Z,6.80
2022-11-12T08:56:46.930Z,4.63
2022-11-12T08:59:33.962Z,5.90
2022-11-12T09:02:22.567Z,4.30
2022-11-12T09:05:09.924Z,5.97
2022-11-12T09:08:01.350Z,5.53
2022-11-12T09:10:50.765Z,5.53
2022-11-12T09:13:38.479Z,4.57
2022-11-12T09:16:25.583Z,4.57
2022-11-12T09:19:13.301Z,5.40
2022-11-12T09:22:00.435Z,4.50
2022-11-12T09:24:47.887Z,4.87
2022-11-12T09:27:36.713Z,4.63
2022-11-12T09:30:24.023Z,4.10
2022-11-12T09:33:12.023Z,6.80
2022-11-12T09:36:02.483Z,4.93
2022-11-12T09:38:49.748Z,5.10
2022-11-12T09:41:38.566Z,4.90
2022-11-12T09:44:29.003Z,5.17
2022-11-12T09:47:25.135Z,5.23
2022-11-12T09:50:21.088Z,6.23
2022-11-12T09:53:16.024Z,6.87
2022-11-12T09:56:07.376Z,6.53
2022-11-12T09:58:55.991Z,5.43
2022-11-12T10:01:56.104Z,5.73
2022-11-12T10:04:53.149Z,7.20
2022-11-12T10:07:50.442Z,6.97
2022-11-12T10:10:45.784Z,7.03
2022-11-12T10:13:44.505Z,6.70
2022-11-12T10:16:51.615Z,7.70
2022-11-12T10:20:07.360Z,6.60
2022-11-12T10:23:08.739Z,7.10
2022-11-12T10:25:59.545Z,6.13
2022-11-12T10:28:51.561Z,5.80
2022-11-12T10:31:38.906Z,4.57
2022-11-12T10:34:28.311Z,5.73
2022-11-12T10:37:20.329Z,5.97
2022-11-12T10:40:33.282Z,7.10
2022-11-12T10:43:25.154Z,7.43
2022-11-12T10:46:21.106Z,7.93
2022-11-12T10:49:24.982Z,9.23
2022-11-12T10:52:25.486Z,8.20
2022-11-12T10:55:18.600Z,11.73
2022-11-12T10:58:14.083Z,11.57
2022-11-12T11:01:04.012Z,9.40
2022-11-12T11:03:56.910Z,12.57
2022-11-12T11:06:45.721Z,9.60
2022-11-12T11:09:35.341Z,8.50
2022-11-12T11:12:28.317Z,6.17
2022-11-12T11:15:21.069Z,10.13
2022-11-12T11:18:12.284Z,8.97
2022-11-12T11:21:15.094Z,9.77
2022-11-12T11:24:16.975Z,7.90
2022-11-12T11:27:13.656Z,6.87
2022-11-12T11:30:09.350Z,8.73
2022-11-12T11:33:27.209Z,8.03
2022-11-12T11:36:26.252Z,9.27
2022-11-12T11:39:23.219Z,9.27
2022-11-12T11:42:28.230Z,9.47
2022-11-12T11:45:22.155Z,10.53
2022-11-12T11:48:21.272Z,13.43
2022-11-12T11:51:25.920Z,12.83
2022-11-12T11:54:34.000Z,13.60
2022-11-12T11:57:27.304Z,12.63
2022-11-12T12:00:18.582Z,12.67
2022-11-12T12:03:19.659Z,15.43
2022-11-12T12:06:20.996Z,16.00
2022-11-12T12:09:23.441Z,15.07
2022-11-12T12:12:26.384Z,15.53
2022-11-12T12:15:36.637Z,15.60
2022-11-12T12:18:35.880Z,19.00
2022-11-12T12:21:26.510Z,21.90
2022-11-12T12:24:19.209Z,19.00
2022-11-12T12:27:12.662Z,20.10
2022-11-12T12:30:03.832Z,20.90
2022-11-12T12:32:56.709Z,23.33
2022-11-12T12:35:52.802Z,26.43
2022-11-12T12:38:47.111Z,25.40
2022-11-12T12:41:43.690Z,24.40
2022-11-12T12:44:51.307Z,25.57
2022-11-12T12:47:44.091Z,23.00
2022-11-12T12:50:31.830Z,22.73
2022-11-12T12:53:33.794Z,19.93
2022-11-12T12:56:49.334Z,22.80
2022-11-12T12:59:36.175Z,22.03
2022-11-12T13:02:26.165Z,26.73
2022-11-12T13:05:30.232Z,21.53
2022-11-12T13:08:24.625Z,21.47
2022-11-12T13:11:11.824Z,20.07
2022-11-12T13:14:38.726Z,18.80
2022-11-12T13:17:50.621Z,20.63
2022-11-12T13:20:42.741Z,20.37
2022-11-12T13:24:00.729Z,19.57
2022-11-12T13:26:53.315Z,19.80
2022-11-12T13:29:45.505Z,18.80
2022-11-12T13:32:38.770Z,19.55
2022-11-12T13:35:31.554Z,19.48
2022-11-12T13:38:20.513Z,19.92
2022-11-12T13:41:16.824Z,22.87
2022-11-12T13:44:08.333Z,20.60
2022-11-12T13:46:56.606Z,22.37
2022-11-12T13:49:44.795Z,21.10
2022-11-12T13:52:33.043Z,19.83
2022-11-12T13:55:23.483Z,22.27
2022-11-12T13:58:20.571Z,19.47
2022-11-12T14:01:08.740Z,18.03
2022-11-12T14:03:56.938Z,13.13
2022-11-12T14:06:46.552Z,12.67
2022-11-12T14:09:47.752Z,13.77
2022-11-12T14:12:56.063Z,13.57
2022-11-12T14:16:00.746Z,17.20
2022-11-12T14:19:06.974Z,18.20
2022-11-12T14:22:02.679Z,15.83
2022-11-12T14:24:55.143Z,14.97
2022-11-12T14:27:42.374Z,14.07
2022-11-12T14:30:32.163Z,14.07
2022-11-12T14:33:22.118Z,13.40
2022-11-12T14:36:14.924Z,12.90
2022-11-12T14:39:02.934Z,13.43
2022-11-12T14:41:50.990Z,12.63
2022-11-12T14:44:40.115Z,13.97
2022-11-12T14:47:28.849Z,13.50
2022-11-12T14:50:21.952Z,13.10
2022-11-12T14:53:16.546Z,12.13
2022-11-12T14:56:10.961Z,12.80
2022-11-12T14:58:58.106Z,14.33
2022-11-12T15:02:29.663Z,16.77
2022-11-12T15:05:18.269Z,12.57
2022-11-12T15:08:11.260Z,13.87
2022-11-12T15:10:59.309Z,14.47
2022-11-12T15:13:47.598Z,13.10
2022-11-12T15:16:37.220Z,13.33
2022-11-12T15:19:26.268Z,12.40
2022-11-12T15:22:22.857Z,13.57
2022-11-12T15:25:21.136Z,16.80
2022-11-12T15:28:15.984Z,15.40
2022-11-12T15:31:07.059Z,17.63
2022-11-12T15:33:56.744Z,16.20
2022-11-12T15:36:43.884Z,17.30
2022-11-12T15:39:36.367Z,15.87
2022-11-12T15:42:29.140Z,15.80
2022-11-12T15:45:19.234Z,14.10
2022-11-12T15:48:09.090Z,12.93
2022-11-12T15:50:57.261Z,13.73
2022-11-12T15:53:44.000Z,14.60
2022-11-12T15:56:33.281Z,15.07
2022-11-12T15:59:20.491Z,14.87
2022-11-12T16:02:13.446Z,18.97
2022-11-12T16:05:01.191Z,14.83
2022-11-12T16:07:48.703Z,13.23
2022-11-12T16:10:36.941Z,13.90
2022-11-12T16:13:29.667Z,22.30
2022-11-12T16:16:17.821Z,15.80
2022-11-12T16:19:04.983Z,15.20
2022-11-12T16:21:52.072Z,14.17
2022-11-12T16:24:39.356Z,13.57
2022-11-12T16:27:27.531Z,14.77
2022-11-12T16:30:18.756Z,13.17
2022-11-12T16:33:05.795Z,12.63
2022-11-12T16:35:52.999Z,12.70
2022-11-12T16:38:41.048Z,11.70
2022-11-12T16:41:28.193Z,12.70
2022-11-12T16:44:15.926Z,14.07
2022-11-12T16:47:06.382Z,10.93
2022-11-12T16:49:54.258Z,12.80
2022-11-12T16:52:41.700Z,10.73
2022-11-12T16:55:29.943Z,11.27
2022-11-12T16:58:16.995Z,10.90
2022-11-12T17:01:04.800Z,11.20
2022-11-12T17:03:54.106Z,11.43
2022-11-12T17:06:42.710Z,10.60
2022-11-12T17:09:30.027Z,10.60
2022-11-12T17:12:17.174Z,10.70
2022-11-12T17:15:05.534Z,11.50
2022-11-12T17:17:54.499Z,11.97
2022-11-12T17:20:47.113Z,9.07
2022-11-12T17:23:38.102Z,11.67
2022-11-12T17:26:25.971Z,10.27
2022-11-12T17:29:14.310Z,10.80
2022-11-12T17:32:01.563Z,11.10
2022-11-12T17:34:49.204Z,10.40
2022-11-12T17:37:37.933Z,11.90
2022-11-12T17:40:25.029Z,14.43
2022-11-12T17:43:12.869Z,10.50
2022-11-12T17:46:00.213Z,12.03
2022-11-12T17:48:48.152Z,9.90
2022-11-12T17:51:35.221Z,10.87
2022-11-12T17:54:24.236Z,12.70
2022-11-12T17:57:11.198Z,8.93
2022-11-12T17:59:58.716Z,14.07
2022-11-12T18:02:46.583Z,10.33
2022-11-12T18:05:34.077Z,14.30
2022-11-12T18:08:21.291Z,13.53
2022-11-12T18:11:10.579Z,12.83
2022-11-12T18:13:58.958Z,11.40
2022-11-12T18:16:46.552Z,9.70
2022-11-12T18:19:34.482Z,8.57
2022-11-12T18:22:21.129Z,12.07
2022-11-12T18:25:09.752Z,12.37
2022-11-12T18:27:58.135Z,9.73
2022-11-12T18:30:46.821Z,13.03
2022-11-12T18:33:36.388Z,10.20
2022-11-12T18:36:25.526Z,8.33
2022-11-12T18:39:13.530Z,7.97
2022-11-12T18:42:00.675Z,10.57
2022-11-12T18:44:49.490Z,8.63
2022-11-12T18:47:36.649Z,9.60
2022-11-12T18:50:24.206Z,9.00
2022-11-12T18:53:11.083Z,9.27
2022-11-12T18:56:01.607Z,9.50
2022-11-12T18:58:49.241Z,8.90
2022-11-12T19:01:38.329Z,9.47
2022-11-12T19:04:25.818Z,8.17
2022-11-12T19:07:12.842Z,8.27
2022-11-12T19:10:01.610Z,7.70
2022-11-12T19:12:48.562Z,7.57
2022-11-12T19:15:36.497Z,8.37
2022-11-12T19:18:24.771Z,8.27
2022-11-12T19:21:14.796Z,7.17
2022-11-12T19:24:01.784Z,7.03
2022-11-12T19:26:49.507Z,6.43
2022-11-12T19:29:36.834Z,8.37
2022-11-12T19:32:23.774Z,7.77
2022-11-12T19:35:13.066Z,8.03
2022-11-12T19:38:00.007Z,6.90
2022-11-12T19:40:47.605Z,8.67
2022-11-12T19:43:35.115Z,7.83
2022-11-12T19:46:22.668Z,7.57
2022-11-12T19:49:11.488Z,6.10
2022-11-12T19:52:00.514Z,5.60
2022-11-12T19:54:47.520Z,7.33
2022-11-12T19:57:35.370Z,8.80
2022-11-12T20:00:22.818Z,7.30
2022-11-12T20:03:09.743Z,9.63
2022-11-12T20:06:01.325Z,7.30
2022-11-12T20:08:49.665Z,6.33
2022-11-12T20:11:37.514Z,5.63
2022-11-12T20:14:24.659Z,7.83
2022-11-12T20:17:12.082Z,7.07
2022-11-12T20:19:59.159Z,7.60
2022-11-12T20:22:46.865Z,6.10
2022-11-12T20:25:35.671Z,5.30
2022-11-12T20:28:22.503Z,5.90
2022-11-12T20:31:12.811Z,8.17
2022-11-12T20:34:00.272Z,6.60
2022-11-12T20:36:47.655Z,9.50
2022-11-12T20:39:35.934Z,6.63
2022-11-12T20:42:25.120Z,3.93
2022-11-12T20:45:12.714Z,4.70
2022-11-12T20:47:59.804Z,3.87
2022-11-12T20:51:09.371Z,5.20
2022-11-12T20:54:00.001Z,4.63
2022-11-12T20:56:50.575Z,3.80
2022-11-12T20:59:41.475Z,3.47
2022-11-12T21:02:28.219Z,3.67
2022-11-12T21:05:15.954Z,13.70
2022-11-12T21:08:02.934Z,17.40
2022-11-12T21:10:51.129Z,7.83
2022-11-12T21:13:39.328Z,5.20
2022-11-12T21:16:29.145Z,5.13
2022-11-12T21:19:15.949Z,5.33
2022-11-12T21:22:03.231Z,5.17
2022-11-12T21:24:50.219Z,5.03
2022-11-12T21:27:37.599Z,5.00
2022-11-12T21:30:24.586Z,4.97
2022-11-12T21:33:14.294Z,5.93
2022-11-12T21:36:01.353Z,4.07
2022-11-12T21:38:49.258Z,4.10
2022-11-12T21:41:35.895Z,4.60
2022-11-12T21:44:23.482Z,6.90
2022-11-12T21:47:11.036Z,6.37
2022-11-12T21:49:59.374Z,5.90
2022-11-12T21:52:46.885Z,7.87
2022-11-12T21:55:33.929Z,9.77
2022-11-12T21:58:21.282Z,8.20
2022-11-12T22:01:10.092Z,9.03
2022-11-12T22:03:59.889Z,10.27
2022-11-12T22:06:48.078Z,10.27
2022-11-12T22:09:36.217Z,6.57
2022-11-12T22:12:23.656Z,6.53
2022-11-12T22:15:11.210Z,8.60
2022-11-12T22:17:59.495Z,7.00
2022-11-12T22:20:56.894Z,7.63
2022-11-12T22:23:46.516Z,8.80
2022-11-12T22:26:33.317Z,6.60
2022-11-12T22:29:20.903Z,7.10
2022-11-12T22:32:07.912Z,5.93
2022-11-12T22:34:55.427Z,6.73
2022-11-12T22:37:42.089Z,6.73
2022-11-12T22:40:30.776Z,5.77
2022-11-12T22:43:18.043Z,7.47
2022-11-12T22:46:06.846Z,7.80
2022-11-12T22:48:54.817Z,5.30
2022-11-12T22:51:42.011Z,5.17
2022-11-12T22:54:29.531Z,6.10
2022-11-12T22:57:17.845Z,8.13
2022-11-12T23:00:09.781Z,4.90
2022-11-12T23:02:56.874Z,4.20
2022-11-12T23:05:44.414Z,4.57
2022-11-12T23:08:31.704Z,4.30
2022-11-12T23:11:20.299Z,4.33
2022-11-12T23:14:09.544Z,3.80
2022-11-12T23:16:59.463Z,4.07
2022-11-12T23:19:47.056Z,3.53
2022-11-12T23:22:34.208Z,3.77
2022-11-12T23:25:21.925Z,3.70
2022-11-12T23:28:09.116Z,4.20
2022-11-12T23:30:58.076Z,6.77
2022-11-12T23:33:46.486Z,4.30
2022-11-12T23:36:34.517Z,4.37
2022-11-12T23:39:21.704Z,5.47
2022-11-12T23:42:08.644Z,4.30
2022-11-12T23:44:56.243Z,4.77
2022-11-12T23:47:44.822Z,4.40
2022-11-12T23:50:32.229Z,4.27
2022-11-12T23:53:19.713Z,4.80
2022-11-12T23:56:09.667Z,4.80
2022-11-12T23:58:56.888Z,4.20
